Time;durP1;ratioP1;P1;durP2;ratioP2;P2;SDS_P1;SDS_P2;PMS_P1;PMS_P2;Temp;Humidity;BMP_temperature;BMP_pressure;BME280_temperature;BME280_humidity;BME280_pressure;Samples;Min_cycle;Max_cycle;Signal;HPM_P1;HPM_P2
2023/07/11 02:01:24;;;;;;;9.57;8.52;;;;;;;;;;4681016;27;20557;-77
2023/07/11 02:03:51;;;;;;;19.55;8.38;;;;;;;;;;4247492;33;20045;-75
2023/07/11 02:06:17;;;;;;;16.65;10.93;;;;;;;;;;4234864;33;20091;-75
2023/07/11 02:08:43;;;;;;;12.13;9.02;;;;;;;;;;4235985;33;20114;-75
2023/07/11 02:11:12;;;;;;;12.68;8.27;;;;;;;;;;4235376;33;20051;-76
2023/07/11 02:13:40;;;;;;;13.50;8.90;;;;;;;;;;4235902;33;20478;-75
2023/07/11 02:16:07;;;;;;;17.95;9.02;;;;;;;;;;4233341;33;20063;-77
2023/07/11 02:18:34;;;;;;;15.55;8.70;;;;;;;;;;4235282;33;20075;-76
2023/07/11 02:21:00;;;;;;;11.15;8.10;;;;;;;;;;4235959;33;20039;-75
2023/07/11 02:23:26;;;;;;;20.12;8.40;;;;;;;;;;4237171;33;20055;-74
2023/07/11 02:25:59;;;;;;;9.60;8.07;;;;;;;;;;4221728;34;20043;-77
2023/07/11 02:28:25;;;;;;;15.15;8.85;;;;;;;;;;4221131;34;20517;-75
2023/07/11 02:30:51;;;;;;;11.82;8.23;;;;;;;;;;4221692;34;20272;-74
2023/07/11 02:33:18;;;;;;;15.68;8.13;;;;;;;;;;4220512;34;20042;-76
2023/07/11 02:35:43;;;;;;;10.57;8.18;;;;;;;;;;4220101;34;20076;-76
2023/07/11 02:38:10;;;;;;;12.43;8.38;;;;;;;;;;4242102;33;20042;-76
2023/07/11 02:40:36;;;;;;;10.82;8.65;;;;;;;;;;4235098;33;20054;-75
2023/07/11 02:43:02;;;;;;;18.80;9.55;;;;;;;;;;4235248;33;20046;-76
2023/07/11 02:45:28;;;;;;;12.80;7.80;;;;;;;;;;4200369;34;20074;-75
2023/07/11 02:47:54;;;;;;;9.68;8.40;;;;;;;;;;4191728;34;20113;-76
2023/07/11 02:50:20;;;;;;;13.73;8.98;;;;;;;;;;4191648;34;20036;-76
2023/07/11 02:52:48;;;;;;;14.93;8.30;;;;;;;;;;4193416;34;20522;-75
2023/07/11 02:55:13;;;;;;;12.23;8.70;;;;;;;;;;4192091;34;20395;-76
2023/07/11 02:57:46;;;;;;;10.68;8.95;;;;;;;;;;4216574;34;20158;-76
2023/07/11 03:00:12;;;;;;;19.30;9.68;;;;;;;;;;4218928;34;20046;-74
2023/07/11 03:02:38;;;;;;;14.65;7.78;;;;;;;;;;4203499;34;20097;-76
2023/07/11 03:05:05;;;;;;;12.63;7.78;;;;;;;;;;4206189;34;20423;-73
2023/07/11 03:07:31;;;;;;;9.98;8.13;;;;;;;;;;4208820;34;20414;-75
2023/07/11 03:09:57;;;;;;;10.93;8.35;;;;;;;;;;4209109;34;20074;-77
2023/07/11 03:12:24;;;;;;;14.60;9.50;;;;;;;;;;4208603;34;20120;-75
2023/07/11 03:14:50;;;;;;;12.73;8.35;;;;;;;;;;4209468;34;20047;-76
2023/07/11 03:17:17;;;;;;;11.57;8.00;;;;;;;;;;4220584;34;20056;-75
2023/07/11 03:19:43;;;;;;;11.40;8.43;;;;;;;;;;4223164;34;20035;-76
2023/07/11 03:22:09;;;;;;;13.32;8.38;;;;;;;;;;4222388;34;20117;-78
2023/07/11 03:24:35;;;;;;;22.87;8.50;;;;;;;;;;4222564;34;20211;-76
2023/07/11 03:27:01;;;;;;;12.15;7.47;;;;;;;;;;4234550;33;20615;-75
2023/07/11 03:29:27;;;;;;;13.23;9.07;;;;;;;;;;4237613;33;20125;-75
2023/07/11 03:31:54;;;;;;;10.07;7.45;;;;;;;;;;4223594;34;20046;-75
2023/07/11 03:34:20;;;;;;;13.82;7.72;;;;;;;;;;4206810;34;20061;-75
2023/07/11 03:36:46;;;;;;;12.37;7.68;;;;;;;;;;4181988;34;20068;-75
2023/07/11 03:39:12;;;;;;;13.90;8.35;;;;;;;;;;4153409;34;20075;-75
2023/07/11 03:41:39;;;;;;;12.13;7.62;;;;;;;;;;4154520;34;20052;-75
2023/07/11 03:44:05;;;;;;;8.45;6.87;;;;;;;;;;4156454;34;20099;-75
2023/07/11 03:46:31;;;;;;;12.05;7.28;;;;;;;;;;4164762;34;20048;-76
2023/07/11 03:48:58;;;;;;;10.80;7.70;;;;;;;;;;4166819;34;20515;-75
2023/07/11 03:51:25;;;;;;;14.73;10.02;;;;;;;;;;4168683;34;20064;-75
2023/07/11 03:53:50;;;;;;;15.63;9.35;;;;;;;;;;4168794;34;20043;-75
2023/07/11 03:56:17;;;;;;;11.82;8.18;;;;;;;;;;4168573;34;20466;-75
2023/07/11 03:58:43;;;;;;;16.20;10.75;;;;;;;;;;4151640;34;20151;-78
2023/07/11 04:01:09;;;;;;;8.63;7.60;;;;;;;;;;4139449;34;20068;-74
2023/07/11 04:03:35;;;;;;;11.12;8.13;;;;;;;;;;4139516;34;20036;-74
2023/07/11 04:06:02;;;;;;;17.67;6.05;;;;;;;;;;4152925;34;20175;-76
2023/07/11 04:08:28;;;;;;;11.73;5.62;;;;;;;;;;4152818;34;20053;-75
2023/07/11 04:10:55;;;;;;;8.90;6.15;;;;;;;;;;4148823;34;20141;-77
2023/07/11 04:13:21;;;;;;;9.07;5.43;;;;;;;;;;4126943;34;20070;-74
2023/07/11 04:15:47;;;;;;;6.85;5.93;;;;;;;;;;4166530;34;20114;-76
2023/07/11 04:18:14;;;;;;;7.93;6.37;;;;;;;;;;4152991;34;20066;-74
2023/07/11 04:20:40;;;;;;;14.48;6.00;;;;;;;;;;4139813;34;20075;-75
2023/07/11 04:23:06;;;;;;;8.43;6.55;;;;;;;;;;4137644;34;20440;-78
2023/07/11 04:25:32;;;;;;;22.40;6.70;;;;;;;;;;4141014;34;20086;-74
2023/07/11 04:27:58;;;;;;;8.68;6.93;;;;;;;;;;4139928;34;20169;-75
2023/07/11 04:30:25;;;;;;;10.38;6.90;;;;;;;;;;4139751;34;20452;-75
2023/07/11 04:32:51;;;;;;;9.27;6.85;;;;;;;;;;4119525;34;20146;-75
2023/07/11 04:35:17;;;;;;;12.85;7.18;;;;;;;;;;4133883;34;20388;-76
2023/07/11 04:37:43;;;;;;;8.75;6.78;;;;;;;;;;4113593;34;20075;-74
2023/07/11 04:40:10;;;;;;;14.93;6.90;;;;;;;;;;4112412;34;20439;-74
2023/07/11 04:42:36;;;;;;;9.55;6.30;;;;;;;;;;4132501;34;20049;-76
2023/07/11 04:45:03;;;;;;;13.73;6.85;;;;;;;;;;4132298;34;20120;-76
2023/07/11 04:47:30;;;;;;;11.27;6.75;;;;;;;;;;4115263;34;20829;-75
2023/07/11 04:49:56;;;;;;;10.05;6.70;;;;;;;;;;4123992;34;20101;-76
2023/07/11 04:52:22;;;;;;;10.02;6.35;;;;;;;;;;4148986;34;20111;-76
2023/07/11 04:54:49;;;;;;;12.02;7.00;;;;;;;;;;4152668;34;20132;-78
2023/07/11 04:57:14;;;;;;;15.85;7.82;;;;;;;;;;4150953;34;20437;-76
2023/07/11 04:59:41;;;;;;;9.25;7.43;;;;;;;;;;4152776;34;20048;-76
2023/07/11 05:02:07;;;;;;;11.40;7.47;;;;;;;;;;4152543;34;20048;-74
2023/07/11 05:04:33;;;;;;;9.45;7.45;;;;;;;;;;4152673;34;20496;-76
2023/07/11 05:07:00;;;;;;;12.05;6.72;;;;;;;;;;4116107;34;20095;-76
2023/07/11 05:09:27;;;;;;;9.65;6.37;;;;;;;;;;4134777;34;20104;-78
2023/07/11 05:11:53;;;;;;;9.10;6.03;;;;;;;;;;4118814;34;20414;-76
2023/07/11 05:14:20;;;;;;;19.08;7.10;;;;;;;;;;4116095;34;20377;-76
2023/07/11 05:16:46;;;;;;;12.73;7.43;;;;;;;;;;4121137;34;20041;-75
2023/07/11 05:19:12;;;;;;;12.27;5.90;;;;;;;;;;4134873;34;20066;-77
2023/07/11 05:21:38;;;;;;;4.50;4.07;;;;;;;;;;4153847;34;20102;-75
2023/07/11 05:24:05;;;;;;;6.72;3.42;;;;;;;;;;4142216;34;20074;-75
2023/07/11 05:26:32;;;;;;;8.93;2.37;;;;;;;;;;4140213;34;20097;-75
2023/07/11 05:28:58;;;;;;;5.78;2.60;;;;;;;;;;4130432;34;20049;-75
2023/07/11 05:31:25;;;;;;;1.98;1.87;;;;;;;;;;4139054;34;20821;-75
2023/07/11 05:33:52;;;;;;;2.53;2.08;;;;;;;;;;4124214;34;20042;-75
2023/07/11 05:36:38;;;;;;;3.95;2.20;;;;;;;;;;4126176;34;20072;-75
2023/07/11 05:39:06;;;;;;;3.15;2.05;;;;;;;;;;4138800;34;20530;-76
2023/07/11 05:41:33;;;;;;;3.78;1.80;;;;;;;;;;4150311;34;20175;-76
2023/07/11 05:43:59;;;;;;;6.50;2.50;;;;;;;;;;4165266;34;20048;-75
2023/07/11 05:46:26;;;;;;;4.75;2.12;;;;;;;;;;4165493;34;20078;-76
2023/07/11 05:48:53;;;;;;;5.55;1.80;;;;;;;;;;4178869;34;20051;-76
2023/07/11 05:51:20;;;;;;;2.08;1.80;;;;;;;;;;4180100;34;20035;-78
2023/07/11 05:53:48;;;;;;;1.90;1.80;;;;;;;;;;4150424;34;20096;-76
2023/07/11 05:56:14;;;;;;;5.18;1.90;;;;;;;;;;4141939;34;20045;-76
2023/07/11 05:58:43;;;;;;;3.30;2.33;;;;;;;;;;4139639;34;20076;-76
2023/07/11 06:01:10;;;;;;;3.50;1.85;;;;;;;;;;4139077;34;20090;-78
2023/07/11 06:03:36;;;;;;;1.95;1.73;;;;;;;;;;4138148;34;20132;-78
2023/07/11 06:06:05;;;;;;;1.40;1.40;;;;;;;;;;4170664;34;20048;-78
2023/07/11 06:08:32;;;;;;;3.17;1.95;;;;;;;;;;4166333;34;20044;-76
2023/07/11 06:10:59;;;;;;;1.60;1.50;;;;;;;;;;4152008;34;20061;-75
2023/07/11 06:13:26;;;;;;;7.03;1.73;;;;;;;;;;4141940;34;20064;-80
2023/07/11 06:15:56;;;;;;;4.60;1.87;;;;;;;;;;4154114;34;20227;-76
2023/07/11 06:18:23;;;;;;;3.12;1.50;;;;;;;;;;4176316;34;20401;-77
2023/07/11 06:20:49;;;;;;;1.83;1.73;;;;;;;;;;4180183;34;20024;-76
2023/07/11 06:23:15;;;;;;;2.25;1.60;;;;;;;;;;4151978;34;20620;-76
2023/07/11 06:25:41;;;;;;;5.00;1.40;;;;;;;;;;4175292;34;20069;-74
2023/07/11 06:28:07;;;;;;;4.85;1.90;;;;;;;;;;4176480;34;20650;-75
2023/07/11 06:30:33;;;;;;;1.90;1.80;;;;;;;;;;4172204;34;20088;-75
2023/07/11 06:33:00;;;;;;;1.83;1.70;;;;;;;;;;4171400;34;20530;-75
2023/07/11 06:35:26;;;;;;;4.97;1.70;;;;;;;;;;4169094;34;20028;-76
2023/07/11 06:37:54;;;;;;;2.83;1.85;;;;;;;;;;4156203;34;20032;-77
2023/07/11 06:40:20;;;;;;;1.50;1.48;;;;;;;;;;4169066;34;20183;-75
2023/07/11 06:42:46;;;;;;;3.40;2.05;;;;;;;;;;4156687;34;20136;-76
2023/07/11 06:45:12;;;;;;;6.85;3.78;;;;;;;;;;4137259;34;20070;-76
2023/07/11 06:47:39;;;;;;;3.28;1.87;;;;;;;;;;4124620;34;20056;-77
2023/07/11 06:50:05;;;;;;;2.03;1.90;;;;;;;;;;4121253;34;20446;-76
2023/07/11 06:52:32;;;;;;;1.65;1.55;;;;;;;;;;4121822;34;20085;-74
2023/07/11 06:54:58;;;;;;;2.25;1.48;;;;;;;;;;4126754;34;20342;-76
2023/07/11 06:57:25;;;;;;;2.60;1.35;;;;;;;;;;4142407;34;20104;-78
2023/07/11 06:59:50;;;;;;;1.60;1.50;;;;;;;;;;4146835;34;20045;-79
2023/07/11 07:02:17;;;;;;;17.60;1.62;;;;;;;;;;4166721;34;20040;-76
2023/07/11 07:04:43;;;;;;;1.75;1.30;;;;;;;;;;4180426;34;20067;-76
2023/07/11 07:07:09;;;;;;;2.20;1.87;;;;;;;;;;4195936;34;20085;-76
2023/07/11 07:09:38;;;;;;;2.30;1.62;;;;;;;;;;4195970;34;20588;-74
2023/07/11 07:12:05;;;;;;;4.18;1.70;;;;;;;;;;4196208;34;20104;-76
2023/07/11 07:14:30;;;;;;;1.67;1.58;;;;;;;;;;4199119;34;20070;-79
2023/07/11 07:16:57;;;;;;;5.20;1.70;;;;;;;;;;4230649;33;20092;-83
2023/07/11 07:19:23;;;;;;;6.62;1.48;;;;;;;;;;4239091;33;20052;-76
2023/07/11 07:21:49;;;;;;;1.52;1.42;;;;;;;;;;4243622;33;20059;-79
2023/07/11 07:24:15;;;;;;;4.72;1.60;;;;;;;;;;4246998;33;20057;-79
2023/07/11 07:26:42;;;;;;;2.83;1.42;;;;;;;;;;4243788;33;20225;-78
2023/07/11 07:29:08;;;;;;;1.50;1.40;;;;;;;;;;4243622;33;20042;-77
2023/07/11 07:31:34;;;;;;;4.03;1.60;;;;;;;;;;4246334;33;20074;-78
2023/07/11 07:34:00;;;;;;;2.35;2.15;;;;;;;;;;4239716;33;20034;-77
2023/07/11 07:36:27;;;;;;;3.25;2.35;;;;;;;;;;4237136;33;20076;-80
2023/07/11 07:38:53;;;;;;;1.45;1.40;;;;;;;;;;4239379;33;20297;-76
2023/07/11 07:41:22;;;;;;;2.80;1.42;;;;;;;;;;4239797;33;20125;-76
2023/07/11 07:43:48;;;;;;;1.40;1.40;;;;;;;;;;4236133;33;21526;-78
2023/07/11 07:46:15;;;;;;;1.23;1.12;;;;;;;;;;4237070;33;20050;-76
2023/07/11 07:48:41;;;;;;;3.62;1.67;;;;;;;;;;4234890;33;20042;-76
2023/07/11 07:51:09;;;;;;;9.65;1.77;;;;;;;;;;4237333;33;20070;-76
2023/07/11 07:53:35;;;;;;;1.48;1.37;;;;;;;;;;4237932;33;20068;-76
2023/07/11 07:56:08;;;;;;;1.55;1.45;;;;;;;;;;4237679;33;20076;-78
2023/07/11 07:58:34;;;;;;;3.95;2.35;;;;;;;;;;4236840;33;20054;-77
2023/07/11 08:01:03;;;;;;;1.80;1.70;;;;;;;;;;4240677;33;20136;-78
2023/07/11 08:03:30;;;;;;;2.08;1.50;;;;;;;;;;4251551;33;20076;-78
2023/07/11 08:05:57;;;;;;;8.55;1.80;;;;;;;;;;4251876;33;20448;-77
2023/07/11 08:08:23;;;;;;;2.08;1.60;;;;;;;;;;4244486;33;20453;-79
2023/07/11 08:10:49;;;;;;;3.75;1.60;;;;;;;;;;4233384;33;20110;-78
2023/07/11 08:13:16;;;;;;;1.40;1.30;;;;;;;;;;4242792;33;20051;-77
2023/07/11 08:15:48;;;;;;;1.70;1.40;;;;;;;;;;4237138;33;20424;-81
2023/07/11 08:18:14;;;;;;;1.10;1.10;;;;;;;;;;4254258;33;20075;-77
2023/07/11 08:20:41;;;;;;;3.12;1.40;;;;;;;;;;4254397;33;20050;-78
2023/07/11 08:23:06;;;;;;;2.17;1.35;;;;;;;;;;4253295;33;20796;-75
2023/07/11 08:25:34;;;;;;;1.30;1.17;;;;;;;;;;4246399;33;20416;-78
2023/07/11 08:28:00;;;;;;;1.45;1.35;;;;;;;;;;4249153;33;20091;-76
2023/07/11 08:30:27;;;;;;;1.83;1.70;;;;;;;;;;4223593;34;20049;-78
2023/07/11 08:32:53;;;;;;;5.28;1.67;;;;;;;;;;4219233;34;20182;-82
2023/07/11 08:35:19;;;;;;;10.23;1.60;;;;;;;;;;4219684;34;20523;-75
2023/07/11 08:37:45;;;;;;;1.10;1.10;;;;;;;;;;4221935;34;20104;-75
2023/07/11 08:40:16;;;;;;;1.73;1.62;;;;;;;;;;4219777;34;20474;-76
2023/07/11 08:42:44;;;;;;;1.15;1.15;;;;;;;;;;4221232;33;20102;-77
2023/07/11 08:45:16;;;;;;;7.12;1.75;;;;;;;;;;4211917;34;20440;-77
2023/07/11 08:47:45;;;;;;;3.25;1.70;;;;;;;;;;4210951;34;20046;-75
2023/07/11 08:50:13;;;;;;;2.50;1.70;;;;;;;;;;4213974;34;20113;-77
2023/07/11 08:52:40;;;;;;;1.70;1.60;;;;;;;;;;4210036;34;20117;-74
2023/07/11 08:55:12;;;;;;;9.90;1.65;;;;;;;;;;4212684;34;20054;-76
2023/07/11 08:57:42;;;;;;;2.20;1.70;;;;;;;;;;4216407;34;20058;-75
2023/07/11 09:00:14;;;;;;;8.63;1.42;;;;;;;;;;4213107;34;20103;-73
2023/07/11 09:02:59;;;;;;;2.28;1.30;;;;;;;;;;4238527;33;20537;-80
2023/07/11 09:05:37;;;;;;;2.40;2.20;;;;;;;;;;4241376;33;20235;-75
2023/07/11 09:08:04;;;;;;;2.15;1.27;;;;;;;;;;4245779;33;20217;-74
2023/07/11 09:10:36;;;;;;;1.70;1.50;;;;;;;;;;4235433;33;20449;-79
2023/07/11 09:13:03;;;;;;;;;;;;;;;;;;4219790;34;20274;-75
2023/07/11 09:15:42;;;;;;;4.30;1.65;;;;;;;;;;4225242;33;19945;-75
2023/07/11 09:18:14;;;;;;;8.30;1.95;;;;;;;;;;4247745;33;20079;-80
2023/07/11 09:20:44;;;;;;;2.70;2.00;;;;;;;;;;4249001;33;20054;-74
2023/07/11 09:23:17;;;;;;;2.10;1.77;;;;;;;;;;4250168;33;20064;-74
2023/07/11 09:25:45;;;;;;;1.60;1.60;;;;;;;;;;4248691;33;20062;-74
2023/07/11 09:28:14;;;;;;;7.45;3.25;;;;;;;;;;4247267;33;20104;-76
2023/07/11 09:30:43;;;;;;;2.08;1.83;;;;;;;;;;4246853;33;20326;-75
2023/07/11 09:33:18;;;;;;;2.35;1.95;;;;;;;;;;4247852;33;20030;-75
2023/07/11 09:35:45;;;;;;;11.60;2.20;;;;;;;;;;4246688;33;20094;-74
2023/07/11 09:38:18;;;;;;;5.03;1.70;;;;;;;;;;4246079;33;20086;-74
2023/07/11 09:41:02;;;;;;;5.05;4.05;;;;;;;;;;4246525;33;20124;-75
2023/07/11 09:43:28;;;;;;;5.57;1.75;;;;;;;;;;4251465;33;20050;-75
2023/07/11 09:45:55;;;;;;;3.42;2.58;;;;;;;;;;4262959;33;20034;-75
2023/07/11 09:48:27;;;;;;;1.90;1.80;;;;;;;;;;4261133;33;20072;-76
2023/07/11 09:50:59;;;;;;;7.25;1.60;;;;;;;;;;4263377;33;20097;-76
2023/07/11 09:53:28;;;;;;;1.67;1.50;;;;;;;;;;4263876;33;20107;-76
2023/07/11 09:55:59;;;;;;;4.05;1.83;;;;;;;;;;4263943;33;20803;-75
2023/07/11 09:58:29;;;;;;;3.30;1.70;;;;;;;;;;4266234;33;20817;-75
2023/07/11 10:00:58;;;;;;;1.67;1.58;;;;;;;;;;4266048;33;20079;-75
2023/07/11 10:03:25;;;;;;;2.10;1.90;;;;;;;;;;4270666;33;20110;-77
2023/07/11 10:05:52;;;;;;;7.82;1.70;;;;;;;;;;4271848;33;20062;-75
2023/07/11 10:08:20;;;;;;;1.80;1.70;;;;;;;;;;4274747;33;20045;-75
2023/07/11 10:10:50;;;;;;;1.48;1.48;;;;;;;;;;4275550;33;20157;-75
2023/07/11 10:13:17;;;;;;;3.62;1.60;;;;;;;;;;4266328;33;20033;-76
2023/07/11 10:15:46;;;;;;;2.15;1.90;;;;;;;;;;4273965;33;20876;-75
2023/07/11 10:18:17;;;;;;;4.00;1.62;;;;;;;;;;4242622;33;20064;-76
2023/07/11 10:20:45;;;;;;;2.40;2.20;;;;;;;;;;4242688;33;20076;-74
2023/07/11 10:23:12;;;;;;;1.95;1.80;;;;;;;;;;4240664;33;20043;-79
2023/07/11 10:25:42;;;;;;;2.55;2.20;;;;;;;;;;4226823;33;20817;-75
2023/07/11 10:28:23;;;;;;;3.67;2.08;;;;;;;;;;4235521;33;20400;-74
2023/07/11 10:30:50;;;;;;;4.22;2.17;;;;;;;;;;4226649;33;20493;-78
2023/07/11 10:33:25;;;;;;;6.87;2.20;;;;;;;;;;4230229;33;20081;-75
2023/07/11 10:35:55;;;;;;;1.80;1.70;;;;;;;;;;4219471;33;20430;-75
2023/07/11 10:38:28;;;;;;;2.65;1.62;;;;;;;;;;4224012;33;20392;-80
2023/07/11 10:40:58;;;;;;;1.83;1.70;;;;;;;;;;4233232;33;20084;-75
2023/07/11 10:43:35;;;;;;;2.65;2.45;;;;;;;;;;4233204;33;20051;-77
2023/07/11 10:46:04;;;;;;;2.55;2.33;;;;;;;;;;4221583;33;20110;-74
2023/07/11 10:48:33;;;;;;;2.03;1.87;;;;;;;;;;4219092;34;20146;-75
2023/07/11 10:51:06;;;;;;;3.08;2.70;;;;;;;;;;4214519;34;20085;-75
2023/07/11 10:53:40;;;;;;;2.00;1.83;;;;;;;;;;4221245;34;20503;-75
2023/07/11 10:56:10;;;;;;;4.80;1.77;;;;;;;;;;4221964;33;20422;-76
2023/07/11 10:58:36;;;;;;;3.97;2.40;;;;;;;;;;4210195;33;20023;-78
2023/07/11 11:01:11;;;;;;;2.83;1.92;;;;;;;;;;4360052;28;20051;-83
2023/07/11 11:03:39;;;;;;;6.22;2.15;;;;;;;;;;4239605;33;20050;-76
2023/07/11 11:06:24;;;;;;;2.15;2.03;;;;;;;;;;4241279;33;20544;-76
2023/07/11 11:08:56;;;;;;;2.22;2.08;;;;;;;;;;4236874;33;20037;-75
2023/07/11 11:11:29;;;;;;;3.92;2.10;;;;;;;;;;4237215;33;20125;-78
2023/07/11 11:14:09;;;;;;;5.95;2.53;;;;;;;;;;4255921;33;20037;-74
2023/07/11 11:16:56;;;;;;;1.60;1.50;;;;;;;;;;4257790;33;20092;-74
2023/07/11 11:19:22;;;;;;;2.12;2.03;;;;;;;;;;4258877;33;20038;-75
2023/07/11 11:21:54;;;;;;;5.50;2.10;;;;;;;;;;4257069;33;20049;-81
2023/07/11 11:24:43;;;;;;;8.20;2.15;;;;;;;;;;4259565;33;20054;-75
2023/07/11 11:27:12;;;;;;;5.53;2.03;;;;;;;;;;4252381;33;20062;-72
2023/07/11 11:29:47;;;;;;;2.78;1.98;;;;;;;;;;4259687;33;20041;-76
2023/07/11 11:32:21;;;;;;;3.05;2.20;;;;;;;;;;4262029;33;20065;-75
2023/07/11 11:34:47;;;;;;;6.07;2.40;;;;;;;;;;4259622;33;20109;-75
2023/07/11 11:37:27;;;;;;;2.28;2.15;;;;;;;;;;4286111;33;20363;-77
2023/07/11 11:40:08;;;;;;;2.10;2.00;;;;;;;;;;4259400;33;20046;-77
2023/07/11 11:42:34;;;;;;;;;;;;;;;;;;4260117;33;20407;-75
2023/07/11 11:45:03;;;;;;;4.18;1.70;;;;;;;;;;4257235;33;19953;-80
2023/07/11 11:47:30;;;;;;;2.10;1.90;;;;;;;;;;4259118;33;20221;-77
2023/07/11 11:49:57;;;;;;;2.10;1.90;;;;;;;;;;4258941;33;20038;-75
2023/07/11 11:52:24;;;;;;;2.12;2.03;;;;;;;;;;4257064;33;20419;-76
2023/07/11 11:54:50;;;;;;;2.35;1.70;;;;;;;;;;4262427;33;20091;-75
2023/07/11 11:57:19;;;;;;;2.70;2.50;;;;;;;;;;4260340;33;20077;-75
2023/07/11 11:59:45;;;;;;;1.95;1.85;;;;;;;;;;4263820;33;20299;-76
2023/07/11 12:02:25;;;;;;;3.55;1.90;;;;;;;;;;4260730;33;20079;-75
2023/07/11 12:04:54;;;;;;;2.45;2.25;;;;;;;;;;4258900;33;20046;-75
2023/07/11 12:07:25;;;;;;;2.92;2.10;;;;;;;;;;4256637;33;20133;-76
2023/07/11 12:09:51;;;;;;;;;;;;;;;;;;4258836;33;20041;-75
2023/07/11 12:12:21;;;;;;;1.73;1.62;;;;;;;;;;4281974;33;20026;-76
2023/07/11 12:14:54;;;;;;;7.75;2.17;;;;;;;;;;4293399;33;20106;-75
2023/07/11 12:17:33;;;;;;;2.30;2.10;;;;;;;;;;4289735;33;20349;-75
2023/07/11 12:20:02;;;;;;;2.28;1.77;;;;;;;;;;4289924;33;20033;-74
2023/07/11 12:22:34;;;;;;;2.70;2.50;;;;;;;;;;4289521;33;20484;-74
2023/07/11 12:25:14;;;;;;;3.28;2.83;;;;;;;;;;4288920;33;20045;-76
2023/07/11 12:28:00;;;;;;;2.42;1.80;;;;;;;;;;4297089;33;20083;-74
2023/07/11 12:30:26;;;;;;;2.83;1.80;;;;;;;;;;4272202;33;20111;-75
2023/07/11 12:32:57;;;;;;;3.35;2.20;;;;;;;;;;4269466;33;20049;-75
2023/07/11 12:35:24;;;;;;;9.73;2.00;;;;;;;;;;4271450;33;20033;-74
2023/07/11 12:37:53;;;;;;;6.30;2.03;;;;;;;;;;4273441;33;20075;-74
2023/07/11 12:40:20;;;;;;;2.15;1.92;;;;;;;;;;4271258;33;20049;-73
2023/07/11 12:42:51;;;;;;;5.40;2.25;;;;;;;;;;4277723;33;20048;-75
2023/07/11 12:45:20;;;;;;;1.85;1.75;;;;;;;;;;4270596;33;20110;-75
2023/07/11 12:47:47;;;;;;;7.40;1.80;;;;;;;;;;4274781;33;20455;-77
2023/07/11 12:50:17;;;;;;;1.73;1.62;;;;;;;;;;4273074;33;20076;-75
2023/07/11 12:52:44;;;;;;;1.73;1.62;;;;;;;;;;4274942;33;20174;-75
2023/07/11 12:55:11;;;;;;;2.00;1.90;;;;;;;;;;4265611;33;20054;-75
2023/07/11 12:57:43;;;;;;;2.20;2.10;;;;;;;;;;4269173;33;20387;-76
2023/07/11 13:00:22;;;;;;;2.10;2.00;;;;;;;;;;4274974;33;20071;-75
2023/07/11 13:02:50;;;;;;;2.45;1.67;;;;;;;;;;4293827;33;20064;-75
2023/07/11 13:05:16;;;;;;;1.95;1.85;;;;;;;;;;4294708;33;20067;-74
2023/07/11 13:07:43;;;;;;;2.58;1.87;;;;;;;;;;4291009;33;20045;-75
2023/07/11 13:10:28;;;;;;;2.80;2.00;;;;;;;;;;4293997;33;20463;-73
2023/07/11 13:12:54;;;;;;;2.97;2.42;;;;;;;;;;4293967;33;20399;-74
2023/07/11 13:15:22;;;;;;;2.35;2.15;;;;;;;;;;4257671;33;20115;-74
2023/07/11 13:17:49;;;;;;;5.87;2.60;;;;;;;;;;4258068;33;20284;-73
2023/07/11 13:20:19;;;;;;;1.92;1.83;;;;;;;;;;4264159;33;20050;-74
2023/07/11 13:22:46;;;;;;;3.42;2.40;;;;;;;;;;4262595;33;20054;-74
2023/07/11 13:25:15;;;;;;;3.85;1.98;;;;;;;;;;4250106;33;20091;-74
2023/07/11 13:27:43;;;;;;;4.07;2.00;;;;;;;;;;4232896;33;20068;-76
2023/07/11 13:30:17;;;;;;;2.12;2.03;;;;;;;;;;4236144;33;20396;-74
2023/07/11 13:32:43;;;;;;;2.25;2.15;;;;;;;;;;4234889;33;20053;-74
2023/07/11 13:35:14;;;;;;;1.92;1.83;;;;;;;;;;4236031;33;20050;-75
2023/07/11 13:37:44;;;;;;;2.03;1.92;;;;;;;;;;4235061;33;20080;-75
2023/07/11 13:40:29;;;;;;;3.03;2.83;;;;;;;;;;4235063;33;20069;-76
2023/07/11 13:42:56;;;;;;;5.35;1.80;;;;;;;;;;4235887;33;20065;-75
2023/07/11 13:45:22;;;;;;;2.65;2.42;;;;;;;;;;4233814;33;20073;-74
2023/07/11 13:47:49;;;;;;;2.20;2.00;;;;;;;;;;4248993;33;20119;-74
2023/07/11 13:50:15;;;;;;;7.47;1.83;;;;;;;;;;4245135;33;20053;-73
2023/07/11 13:52:48;;;;;;;3.97;2.42;;;;;;;;;;4249306;33;20085;-74
2023/07/11 13:55:25;;;;;;;2.00;1.90;;;;;;;;;;4250707;33;20061;-74
2023/07/11 13:57:51;;;;;;;4.50;2.42;;;;;;;;;;4275376;33;20452;-74
2023/07/11 14:00:19;;;;;;;2.62;2.30;;;;;;;;;;4292285;33;20065;-74
2023/07/11 14:02:46;;;;;;;3.55;1.90;;;;;;;;;;4293064;33;20061;-79
2023/07/11 14:05:22;;;;;;;2.60;2.37;;;;;;;;;;4288326;33;20053;-74
2023/07/11 14:07:49;;;;;;;4.78;2.17;;;;;;;;;;4253423;33;20038;-75
2023/07/11 14:10:16;;;;;;;1.83;1.73;;;;;;;;;;4247887;33;20416;-76
2023/07/11 14:12:43;;;;;;;6.20;3.05;;;;;;;;;;4249573;33;20393;-77
2023/07/11 14:15:14;;;;;;;3.83;1.80;;;;;;;;;;4247904;33;20103;-77
2023/07/11 14:17:40;;;;;;;3.87;1.90;;;;;;;;;;4251142;33;20108;-75
2023/07/11 14:20:11;;;;;;;6.68;2.30;;;;;;;;;;4223501;33;20194;-74
2023/07/11 14:22:40;;;;;;;2.80;2.60;;;;;;;;;;4220328;34;20050;-79
2023/07/11 14:25:13;;;;;;;6.80;2.33;;;;;;;;;;4220128;34;20055;-74
2023/07/11 14:27:39;;;;;;;2.92;2.42;;;;;;;;;;4228937;33;20042;-75
2023/07/11 14:30:06;;;;;;;3.40;2.17;;;;;;;;;;4229164;33;20055;-73
2023/07/11 14:32:33;;;;;;;3.58;2.00;;;;;;;;;;4220821;34;20031;-73
2023/07/11 14:34:59;;;;;;;2.30;2.10;;;;;;;;;;4230735;33;20397;-75
2023/07/11 14:37:25;;;;;;;4.15;1.85;;;;;;;;;;4235461;33;20051;-75
2023/07/11 14:39:53;;;;;;;3.10;2.30;;;;;;;;;;4273925;33;20045;-73
2023/07/11 14:42:25;;;;;;;2.15;2.05;;;;;;;;;;4277343;33;20465;-74
2023/07/11 14:44:51;;;;;;;;;;;;;;;;;;4276291;33;20062;-73
2023/07/11 14:47:17;;;;;;;7.20;2.28;;;;;;;;;;4276387;33;19980;-73
2023/07/11 14:49:43;;;;;;;8.82;1.80;;;;;;;;;;4276487;33;20254;-74
2023/07/11 14:52:19;;;;;;;2.75;2.08;;;;;;;;;;4284705;33;20046;-74
2023/07/11 14:54:45;;;;;;;3.28;1.87;;;;;;;;;;4279282;33;20049;-81
2023/07/11 14:57:11;;;;;;;1.95;1.85;;;;;;;;;;4279190;33;20088;-74
2023/07/11 14:59:37;;;;;;;2.67;1.87;;;;;;;;;;4280392;33;20493;-73
2023/07/11 15:02:16;;;;;;;2.28;2.17;;;;;;;;;;4281138;33;20061;-74
2023/07/11 15:04:44;;;;;;;6.60;2.10;;;;;;;;;;4261087;33;20102;-82
2023/07/11 15:07:10;;;;;;;5.87;2.05;;;;;;;;;;4266084;33;20053;-75
2023/07/11 15:09:36;;;;;;;1.87;1.77;;;;;;;;;;4266470;33;20046;-74
2023/07/11 15:12:03;;;;;;;2.17;1.98;;;;;;;;;;4264499;33;20042;-74
2023/07/11 15:14:29;;;;;;;2.58;2.20;;;;;;;;;;4265826;33;20430;-76
2023/07/11 15:16:55;;;;;;;7.37;1.90;;;;;;;;;;4263601;33;20086;-76
2023/07/11 15:19:23;;;;;;;2.58;2.05;;;;;;;;;;4251212;33;20091;-74
2023/07/11 15:21:54;;;;;;;3.35;1.80;;;;;;;;;;4255338;33;20042;-74
2023/07/11 15:24:20;;;;;;;;;;;;;;;;;;4265932;33;20483;-76
2023/07/11 15:26:46;;;;;;;6.82;1.83;;;;;;;;;;4264217;33;19945;-76
2023/07/11 15:29:15;;;;;;;2.20;1.90;;;;;;;;;;4264882;33;20071;-74
2023/07/11 15:31:43;;;;;;;2.17;1.98;;;;;;;;;;4264933;33;20038;-75
2023/07/11 15:34:12;;;;;;;4.37;1.90;;;;;;;;;;4264929;33;20077;-76
2023/07/11 15:36:38;;;;;;;3.78;1.90;;;;;;;;;;4236844;33;20043;-75
2023/07/11 15:39:04;;;;;;;6.35;2.03;;;;;;;;;;4259292;33;20050;-75
2023/07/11 15:41:30;;;;;;;1.90;1.80;;;;;;;;;;4263345;33;20080;-77
2023/07/11 15:43:59;;;;;;;4.53;1.85;;;;;;;;;;4260145;33;20216;-74
2023/07/11 15:46:27;;;;;;;1.70;1.65;;;;;;;;;;4259847;33;20147;-75
2023/07/11 15:48:56;;;;;;;3.10;2.05;;;;;;;;;;4257792;33;20063;-82
2023/07/11 15:51:23;;;;;;;3.17;1.75;;;;;;;;;;4259383;33;20050;-76
2023/07/11 15:53:50;;;;;;;1.92;1.83;;;;;;;;;;4260501;33;20065;-77
2023/07/11 15:56:17;;;;;;;2.05;1.85;;;;;;;;;;4262953;33;20183;-76
2023/07/11 15:58:43;;;;;;;6.30;2.30;;;;;;;;;;4263326;33;20206;-77
2023/07/11 16:01:09;;;;;;;2.30;2.10;;;;;;;;;;4260101;33;20079;-77
2023/07/11 16:03:36;;;;;;;1.70;1.58;;;;;;;;;;4263301;33;20104;-76
2023/07/11 16:06:02;;;;;;;2.28;2.08;;;;;;;;;;4262979;33;20079;-75
2023/07/11 16:08:32;;;;;;;3.53;2.20;;;;;;;;;;4277195;33;20057;-76
2023/07/11 16:10:59;;;;;;;1.83;1.73;;;;;;;;;;4290448;33;20053;-78
2023/07/11 16:13:28;;;;;;;3.67;1.77;;;;;;;;;;4294867;33;20371;-74
2023/07/11 16:16:01;;;;;;;1.87;1.77;;;;;;;;;;4295690;33;20071;-75
2023/07/11 16:18:31;;;;;;;3.80;1.60;;;;;;;;;;4295639;33;20200;-74
2023/07/11 16:20:57;;;;;;;2.37;1.50;;;;;;;;;;4294351;33;20111;-76
2023/07/11 16:23:24;;;;;;;2.22;2.10;;;;;;;;;;4294423;33;20049;-75
2023/07/11 16:25:51;;;;;;;4.72;2.40;;;;;;;;;;4296029;33;20091;-75
2023/07/11 16:28:19;;;;;;;2.72;1.83;;;;;;;;;;4295969;33;20077;-75
2023/07/11 16:30:45;;;;;;;2.25;2.12;;;;;;;;;;4294449;33;20083;-79
2023/07/11 16:33:19;;;;;;;3.92;2.40;;;;;;;;;;4295714;33;20442;-74
2023/07/11 16:35:46;;;;;;;4.80;1.90;;;;;;;;;;4295515;33;20075;-75
2023/07/11 16:38:22;;;;;;;2.53;2.05;;;;;;;;;;4264980;33;20120;-75
2023/07/11 16:40:49;;;;;;;2.05;1.90;;;;;;;;;;4263068;33;20041;-75
2023/07/11 16:43:16;;;;;;;2.00;1.90;;;;;;;;;;4264600;33;20045;-75
2023/07/11 16:45:42;;;;;;;4.22;1.55;;;;;;;;;;4264217;33;20085;-75
2023/07/11 16:48:12;;;;;;;2.03;1.80;;;;;;;;;;4264189;33;20046;-74
2023/07/11 16:50:39;;;;;;;;;;;;;;;;;;4265475;33;20042;-75